Time;durP1;ratioP1;P1;durP2;ratioP2;P2;SDS_P1;SDS_P2;PMS_P1;PMS_P2;Temp;Humidity;BMP_temperature;BMP_pressure;BME280_temperature;BME280_humidity;BME280_pressure;Samples;Min_cycle;Max_cycle;Signal;HPM_P1;HPM_P2
2023/08/11 00:01:45;;;;;;;5.3;3.7;;;;;;;14.98;100;943.7609;;;;
2023/08/11 00:07:50;;;;;;;5.2;3.7;;;;;;;14.9;100;943.7825;;;;
2023/08/11 00:10:16;;;;;;;5.3;3.8;;;;;;;14.78;100;943.7202;;;;
2023/08/11 00:12:41;;;;;;;5.1;3.8;;;;;;;14.69;100;943.6944;;;;
2023/08/11 00:15:12;;;;;;;4.8;3.6;;;;;;;14.8;100;943.6842;;;;
2023/08/11 00:17:35;;;;;;;4.7;3.6;;;;;;;14.81;100;943.7011;;;;
2023/08/11 00:20:00;;;;;;;5.6;3.8;;;;;;;14.71;100;943.7386;;;;
2023/08/11 00:22:26;;;;;;;4.7;3.6;;;;;;;14.71;100;943.7153;;;;
2023/08/11 00:24:54;;;;;;;3.8;3.4;;;;;;;14.76;100;943.7547;;;;
2023/08/11 00:27:20;;;;;;;4.9;3.3;;;;;;;14.73;100;943.7915;;;;
2023/08/11 00:29:47;;;;;;;5.5;3.6;;;;;;;14.82;100;943.8304;;;;
2023/08/11 00:32:12;;;;;;;4.2;3.5;;;;;;;14.83;100;943.8169;;;;
2023/08/11 00:34:37;;;;;;;4.3;3.6;;;;;;;14.76;100;943.7579;;;;
2023/08/11 00:37:04;;;;;;;5.1;4.2;;;;;;;14.68;100;943.7289;;;;
2023/08/11 00:39:29;;;;;;;4.9;4.1;;;;;;;14.59;100;943.7596;;;;
2023/08/11 00:41:55;;;;;;;4;3.5;;;;;;;14.68;100;943.7681;;;;
2023/08/11 00:44:20;;;;;;;5;3.2;;;;;;;14.5;100;943.7601;;;;
2023/08/11 00:46:47;;;;;;;4.1;3.7;;;;;;;14.45;100;943.7134;;;;
2023/08/11 00:49:49;;;;;;;3.9;3.5;;;;;;;14.39;100;943.7631;;;;
2023/08/11 00:52:14;;;;;;;4.3;3.5;;;;;;;14.41;100;943.7528;;;;
2023/08/11 00:54:39;;;;;;;4.4;3.4;;;;;;;14.31;100;943.7043;;;;
2023/08/11 00:57:08;;;;;;;4.4;3.4;;;;;;;14.29;100;943.8036;;;;
2023/08/11 00:59:32;;;;;;;4;3.6;;;;;;;14.33;100;943.7461;;;;
2023/08/11 01:01:59;;;;;;;4.6;3.8;;;;;;;14.35;100;943.7598;;;;
2023/08/11 01:04:24;;;;;;;4.5;3.8;;;;;;;14.33;100;943.795;;;;
2023/08/11 01:06:52;;;;;;;7.6;4.1;;;;;;;14.35;100;943.7766;;;;
2023/08/11 01:09:17;;;;;;;5.1;3.9;;;;;;;14.37;100;943.7671;;;;
2023/08/11 01:11:42;;;;;;;4.4;4;;;;;;;14.43;100;943.7903;;;;
2023/08/11 01:14:07;;;;;;;4.7;3.9;;;;;;;14.48;100;943.7761;;;;
2023/08/11 01:16:32;;;;;;;5.1;3.5;;;;;;;14.51;100;943.7842;;;;
2023/08/11 01:18:57;;;;;;;4.3;3.4;;;;;;;14.42;100;943.7603;;;;
2023/08/11 01:21:23;;;;;;;4.4;3.5;;;;;;;14.34;100;943.7942;;;;
2023/08/11 01:23:48;;;;;;;5.2;3.7;;;;;;;14.27;100;943.7322;;;;
2023/08/11 01:26:16;;;;;;;4.9;4;;;;;;;14.23;100;943.7714;;;;
2023/08/11 01:28:41;;;;;;;4.4;3.9;;;;;;;14.14;100;943.7739;;;;
2023/08/11 01:31:08;;;;;;;5.1;3.8;;;;;;;14.09;100;943.8369;;;;
2023/08/11 01:33:31;;;;;;;4.3;3.5;;;;;;;14.01;100;943.7881;;;;
2023/08/11 01:35:57;;;;;;;5.6;3.7;;;;;;;14.08;100;943.8497;;;;
2023/08/11 01:38:23;;;;;;;3.5;3.2;;;;;;;14.21;100;943.9063;;;;
2023/08/11 01:40:48;;;;;;;3.8;3.4;;;;;;;14.24;100;943.8652;;;;
2023/08/11 01:43:17;;;;;;;4.4;3.5;;;;;;;14.04;100;943.8871;;;;
2023/08/11 01:45:43;;;;;;;5.1;3.7;;;;;;;14.03;100;943.8622;;;;
2023/08/11 01:48:08;;;;;;;4.2;3.5;;;;;;;13.97;100;943.9329;;;;
2023/08/11 01:50:33;;;;;;;4.4;4;;;;;;;14.02;100;943.9127;;;;
2023/08/11 01:53:02;;;;;;;4.1;3.7;;;;;;;14.03;100;943.8734;;;;
2023/08/11 01:55:28;;;;;;;5.2;3.5;;;;;;;14;100;943.889;;;;
2023/08/11 01:57:55;;;;;;;5.3;3.8;;;;;;;13.93;100;943.8638;;;;
2023/08/11 02:00:20;;;;;;;4.8;3.6;;;;;;;13.88;100;943.9124;;;;
2023/08/11 02:02:45;;;;;;;5.4;4;;;;;;;13.99;100;943.9442;;;;
2023/08/11 02:05:16;;;;;;;5.3;3.7;;;;;;;13.96;100;943.9344;;;;
2023/08/11 02:07:43;;;;;;;4.2;3.8;;;;;;;14.03;100;943.8822;;;;
2023/08/11 02:10:08;;;;;;;4.2;3.3;;;;;;;14.1;100;943.9155;;;;
2023/08/11 02:12:38;;;;;;;4.3;3.6;;;;;;;13.93;100;943.8318;;;;
2023/08/11 02:15:07;;;;;;;4.5;3.4;;;;;;;13.95;100;943.8231;;;;
2023/08/11 02:17:33;;;;;;;3.8;3.4;;;;;;;13.97;100;943.8128;;;;
2023/08/11 02:19:59;;;;;;;4.1;3.5;;;;;;;13.96;100;943.7991;;;;
2023/08/11 02:22:24;;;;;;;4.6;3.5;;;;;;;13.93;100;943.7997;;;;
2023/08/11 02:25:07;;;;;;;4;3.6;;;;;;;13.91;100;943.742;;;;
2023/08/11 02:27:36;;;;;;;3.7;2.9;;;;;;;13.82;100;943.7936;;;;
2023/08/11 02:30:02;;;;;;;4.1;3.3;;;;;;;13.74;100;943.8167;;;;
2023/08/11 02:35:25;;;;;;;3.9;3.5;;;;;;;13.76;100;943.7665;;;;
2023/08/11 02:37:53;;;;;;;4.7;3.5;;;;;;;13.8;100;943.8228;;;;
2023/08/11 02:40:19;;;;;;;4.3;3.6;;;;;;;13.7;100;943.8134;;;;
2023/08/11 02:42:43;;;;;;;6.6;6;;;;;;;13.84;100;943.7681;;;;
2023/08/11 02:45:11;;;;;;;5.8;5.2;;;;;;;13.88;100;943.7634;;;;
2023/08/11 02:47:37;;;;;;;4.1;3.5;;;;;;;13.89;100;943.7755;;;;
2023/08/11 02:50:04;;;;;;;4.1;3.7;;;;;;;13.76;100;943.7712;;;;
2023/08/11 02:52:32;;;;;;;8.7;5.6;;;;;;;13.82;100;943.7944;;;;
2023/08/11 02:55:26;;;;;;;4.8;4.3;;;;;;;13.88;100;943.6809;;;;
2023/08/11 02:57:54;;;;;;;4.8;3.5;;;;;;;13.96;100;943.7823;;;;
2023/08/11 03:00:20;;;;;;;3.8;3.4;;;;;;;13.95;100;943.7447;;;;
2023/08/11 03:02:45;;;;;;;3.7;3.1;;;;;;;13.68;100;943.7844;;;;
2023/08/11 03:05:09;;;;;;;5.1;3.5;;;;;;;13.77;100;943.8066;;;;
2023/08/11 03:07:34;;;;;;;4.7;3.5;;;;;;;13.83;100;943.8008;;;;
2023/08/11 03:10:12;;;;;;;4.6;3.4;;;;;;;13.74;100;943.8208;;;;
2023/08/11 03:12:37;;;;;;;4.4;3.4;;;;;;;13.71;100;943.8862;;;;
2023/08/11 03:15:04;;;;;;;5;3.6;;;;;;;13.78;100;943.8427;;;;
2023/08/11 03:17:27;;;;;;;5.2;3.5;;;;;;;13.71;100;943.8814;;;;
2023/08/11 03:19:52;;;;;;;5.9;3.5;;;;;;;13.75;100;943.932;;;;
2023/08/11 03:22:19;;;;;;;4;3.3;;;;;;;13.78;100;943.9059;;;;
2023/08/11 03:24:42;;;;;;;4.4;3.5;;;;;;;13.75;100;943.9233;;;;
2023/08/11 03:27:10;;;;;;;4.7;3.9;;;;;;;13.73;100;943.9344;;;;
2023/08/11 03:29:34;;;;;;;3.8;3.4;;;;;;;13.49;100;943.9556;;;;
2023/08/11 03:31:59;;;;;;;7.9;5.7;;;;;;;13.38;100;943.8753;;;;
2023/08/11 03:34:28;;;;;;;6.4;3.8;;;;;;;13.37;100;943.9208;;;;
2023/08/11 03:36:55;;;;;;;4.7;3.7;;;;;;;13.49;100;943.8869;;;;
2023/08/11 03:39:20;;;;;;;5.8;4.1;;;;;;;13.49;100;943.91;;;;
2023/08/11 03:41:50;;;;;;;4.3;3.8;;;;;;;13.54;100;943.9528;;;;
2023/08/11 03:44:16;;;;;;;5.5;4.2;;;;;;;13.57;100;943.941;;;;
2023/08/11 03:46:40;;;;;;;4.1;3.7;;;;;;;13.48;100;944.022;;;;
2023/08/11 03:49:06;;;;;;;4;3.4;;;;;;;13.41;100;944.0044;;;;
2023/08/11 03:51:33;;;;;;;4.7;3.5;;;;;;;13.34;100;944.051;;;;
2023/08/11 03:54:01;;;;;;;4.1;3.5;;;;;;;13.28;100;944.1256;;;;
2023/08/11 03:56:23;;;;;;;4.7;3.9;;;;;;;13.18;100;944.1046;;;;
2023/08/11 03:59:20;;;;;;;5.1;3.3;;;;;;;13.11;100;944.1132;;;;
2023/08/11 04:02:39;;;;;;;6.2;4.2;;;;;;;13.08;100;944.1194;;;;
2023/08/11 04:05:05;;;;;;;3.7;3.4;;;;;;;13.06;100;944.116;;;;
2023/08/11 04:07:30;;;;;;;4.9;3.8;;;;;;;13.23;100;944.1997;;;;
2023/08/11 04:13:42;;;;;;;4.8;4;;;;;;;13.28;100;944.2553;;;;
2023/08/11 04:16:12;;;;;;;5;3.9;;;;;;;13.24;100;944.175;;;;
2023/08/11 04:18:39;;;;;;;6.1;4.4;;;;;;;13.33;100;944.2509;;;;
2023/08/11 04:21:05;;;;;;;5.4;3.9;;;;;;;13.46;100;944.2834;;;;
2023/08/11 04:24:11;;;;;;;4.9;3.4;;;;;;;13.53;100;944.2512;;;;
2023/08/11 04:26:40;;;;;;;5.6;3.4;;;;;;;13.59;100;944.2133;;;;
2023/08/11 04:29:05;;;;;;;4.8;3.4;;;;;;;13.61;100;944.2014;;;;
2023/08/11 04:31:33;;;;;;;5.2;3.4;;;;;;;13.58;100;944.2131;;;;
2023/08/11 04:33:58;;;;;;;4.1;3.4;;;;;;;13.6;100;944.2461;;;;
2023/08/11 04:36:52;;;;;;;5.2;3.5;;;;;;;13.55;100;944.2905;;;;
2023/08/11 04:39:26;;;;;;;4.7;3.5;;;;;;;13.44;100;944.3705;;;;
2023/08/11 04:41:56;;;;;;;6.5;3.6;;;;;;;13.51;100;944.2631;;;;
2023/08/11 04:44:21;;;;;;;3.8;3.4;;;;;;;13.5;100;944.2406;;;;
2023/08/11 04:46:48;;;;;;;4.7;3.7;;;;;;;13.44;100;944.3089;;;;
2023/08/11 04:49:13;;;;;;;5.7;3.7;;;;;;;13.44;100;944.3169;;;;
2023/08/11 04:51:39;;;;;;;5.9;3.4;;;;;;;13.47;100;944.3139;;;;
2023/08/11 04:54:04;;;;;;;4.5;3.7;;;;;;;13.54;100;944.3161;;;;
2023/08/11 04:56:32;;;;;;;4.4;3.5;;;;;;;13.62;100;944.3706;;;;
2023/08/11 04:58:57;;;;;;;9.6;8.7;;;;;;;13.53;100;944.2816;;;;
2023/08/11 05:01:27;;;;;;;8.6;7.9;;;;;;;13.54;100;944.3425;;;;
2023/08/11 05:03:52;;;;;;;7.9;7;;;;;;;13.53;100;944.2272;;;;
2023/08/11 05:06:17;;;;;;;6.6;5;;;;;;;13.52;100;944.3439;;;;
2023/08/11 05:08:44;;;;;;;4.8;4;;;;;;;13.66;100;944.383;;;;
2023/08/11 05:11:10;;;;;;;4;3.6;;;;;;;13.73;100;944.3994;;;;
2023/08/11 05:13:35;;;;;;;6.1;4.1;;;;;;;13.47;100;944.3731;;;;
2023/08/11 05:16:04;;;;;;;5.1;3.8;;;;;;;13.49;100;944.4653;;;;
2023/08/11 05:18:34;;;;;;;4.6;3.6;;;;;;;13.54;100;944.4049;;;;
2023/08/11 05:20:58;;;;;;;4.8;3.6;;;;;;;13.56;100;944.4586;;;;
2023/08/11 05:23:23;;;;;;;4.6;3.5;;;;;;;13.61;100;944.4294;;;;
2023/08/11 05:25:49;;;;;;;4.2;3.4;;;;;;;13.59;100;944.4317;;;;
2023/08/11 05:28:20;;;;;;;6.1;3.6;;;;;;;13.64;100;944.4659;;;;
2023/08/11 05:30:51;;;;;;;3.7;3.3;;;;;;;13.72;100;944.509;;;;
2023/08/11 05:33:45;;;;;;;4.6;4.1;;;;;;;13.83;100;944.4981;;;;
2023/08/11 05:36:05;;;;;;;5.7;3.4;;;;;;;15.87;97.10254;944.4411;;;;
2023/08/11 05:39:14;;;;;;;3.9;2.9;;;;;;;16.98;87.75391;944.387;;;;
2023/08/11 05:41:42;;;;;;;4.5;2.6;;;;;;;18;81.6748;944.4821;;;;
2023/08/11 05:44:08;;;;;;;4.9;2.5;;;;;;;18.62;79.39258;944.4572;;;;
2023/08/11 05:46:32;;;;;;;3.5;2.2;;;;;;;19.11;75.80273;944.3828;;;;
2023/08/11 05:48:59;;;;;;;3.1;2.3;;;;;;;20.79;70.51563;944.363;;;;
2023/08/11 05:51:23;;;;;;;2.5;2.1;;;;;;;21.42;68.88281;944.379;;;;
2023/08/11 05:53:51;;;;;;;3.5;2.1;;;;;;;22.09;63.87793;944.3667;;;;
2023/08/11 05:56:16;;;;;;;3.4;2.2;;;;;;;22.21;63.77539;944.3785;;;;
2023/08/11 05:58:42;;;;;;;3.9;2.2;;;;;;;22.86;61.2627;944.2925;;;;
2023/08/11 06:01:07;;;;;;;3.8;2;;;;;;;22.44;61.80273;944.3681;;;;
2023/08/11 06:03:36;;;;;;;2.5;1.8;;;;;;;23.62;58.70996;944.3147;;;;
2023/08/11 06:06:01;;;;;;;2.4;1.9;;;;;;;24.11;57.13672;944.2787;;;;
2023/08/11 06:08:28;;;;;;;2;1.7;;;;;;;23.97;57.17773;944.2854;;;;
2023/08/11 06:10:54;;;;;;;9;4.9;;;;;;;24.82;54.97559;944.2764;;;;
2023/08/11 06:13:19;;;;;;;9.7;4.3;;;;;;;25.98;51.46289;944.3198;;;;
2023/08/11 06:15:44;;;;;;;4.2;3;;;;;;;25.71;51.23145;944.2668;;;;
2023/08/11 06:19:44;;;;;;;2.4;1.9;;;;;;;26.07;50.41016;944.2267;;;;
2023/08/11 06:21:57;;;;;;;2.7;1.9;;;;;;;25.41;51.51563;944.2595;;;;
2023/08/11 06:24:22;;;;;;;4.9;2.1;;;;;;;24.89;54.60645;944.2406;;;;
2023/08/11 06:26:48;;;;;;;4.2;1.9;;;;;;;26.35;51.04492;944.2579;;;;
2023/08/11 06:29:12;;;;;;;2.2;1.9;;;;;;;27.5;47.6875;944.2587;;;;
2023/08/11 06:31:37;;;;;;;3.4;2;;;;;;;27.17;47.55664;944.3206;;;;
2023/08/11 06:34:02;;;;;;;2.4;2.1;;;;;;;28.01;46.89844;944.2292;;;;
2023/08/11 06:36:28;;;;;;;2.5;2.1;;;;;;;28.7;44.89941;944.22;;;;
2023/08/11 06:38:56;;;;;;;3;1.9;;;;;;;28.06;45.96484;944.2161;;;;
2023/08/11 06:41:21;;;;;;;3;2;;;;;;;28.44;45.08789;944.2258;;;;
2023/08/11 06:43:47;;;;;;;3.2;2.1;;;;;;;27.65;46.37402;944.2269;;;;
2023/08/11 06:46:11;;;;;;;2.9;2.2;;;;;;;26.36;48.27539;944.1858;;;;
2023/08/11 06:48:39;;;;;;;1.9;1.8;;;;;;;27.23;47.70605;944.2144;;;;
2023/08/11 06:51:04;;;;;;;2.1;1.9;;;;;;;25.69;50.81543;944.1696;;;;
2023/08/11 06:53:54;;;;;;;2;1.8;;;;;;;25.36;51.58203;944.1727;;;;
2023/08/11 06:56:22;;;;;;;2.2;1.7;;;;;;;25.46;50.63672;944.1803;;;;
2023/08/11 06:58:47;;;;;;;1.9;1.6;;;;;;;27.63;50.00293;944.1974;;;;
2023/08/11 07:01:17;;;;;;;2.2;1.8;;;;;;;28.98;44.9873;944.0952;;;;
2023/08/11 07:03:40;;;;;;;2.3;1.8;;;;;;;29.39;42.68066;944.0876;;;;
2023/08/11 07:06:06;;;;;;;4.9;3.8;;;;;;;29.13;43.88281;944.0972;;;;
2023/08/11 07:08:31;;;;;;;2;1.9;;;;;;;30.38;41.24512;944.0378;;;;
2023/08/11 07:10:57;;;;;;;1.9;1.7;;;;;;;29.96;41.42188;944.0614;;;;
2023/08/11 07:13:23;;;;;;;1.8;1.7;;;;;;;30.47;41.1709;944.065;;;;
2023/08/11 07:15:51;;;;;;;2.7;2;;;;;;;30.45;40.9541;944.0734;;;;
2023/08/11 07:18:16;;;;;;;2.9;2;;;;;;;30.93;41.73828;944.0305;;;;
2023/08/11 07:20:43;;;;;;;2.1;1.9;;;;;;;30.39;39.80176;944.0323;;;;
2023/08/11 07:23:08;;;;;;;1.9;1.6;;;;;;;32.36;38.82324;943.9903;;;;
2023/08/11 07:25:35;;;;;;;1.6;1.5;;;;;;;29.98;40.54102;943.9797;;;;
2023/08/11 07:28:01;;;;;;;2.7;1.6;;;;;;;31.57;37.55957;943.9269;;;;
2023/08/11 07:30:26;;;;;;;2.4;1.7;;;;;;;29.38;41.73828;943.9553;;;;
2023/08/11 07:32:51;;;;;;;1.9;1.8;;;;;;;31.95;39.54395;943.9949;;;;
2023/08/11 07:38:36;;;;;;;2.4;1.9;;;;;;;32.07;37.48145;943.9895;;;;
2023/08/11 07:41:00;;;;;;;1.7;1.6;;;;;;;30.65;39.06055;944.0563;;;;
2023/08/11 07:43:28;;;;;;;2.8;1.6;;;;;;;30.2;40.11914;944.0824;;;;
2023/08/11 07:45:53;;;;;;;2;1.6;;;;;;;31.04;39.47656;944.0362;;;;
2023/08/11 07:48:19;;;;;;;2.3;1.5;;;;;;;31.59;37.77539;944.0198;;;;
2023/08/11 07:50:45;;;;;;;1.7;1.6;;;;;;;31.25;38.38184;943.9952;;;;
2023/08/11 07:53:14;;;;;;;2.1;1.8;;;;;;;30.59;39.20996;944.0478;;;;
2023/08/11 07:55:42;;;;;;;2;1.7;;;;;;;31.22;40.3418;944.0659;;;;
2023/08/11 07:58:08;;;;;;;1.8;1.7;;;;;;;30.35;39.83496;944.0446;;;;
2023/08/11 08:00:35;;;;;;;2.5;2.1;;;;;;;31.36;38.61816;944.0086;;;;
2023/08/11 08:03:00;;;;;;;2.9;1.6;;;;;;;31.26;37.96484;944.0078;;;;
2023/08/11 08:05:28;;;;;;;3.5;1.9;;;;;;;32.14;39.42773;943.9574;;;;
2023/08/11 08:07:59;;;;;;;5.5;3.9;;;;;;;32.43;36.88672;943.944;;;;
2023/08/11 08:10:25;;;;;;;2.1;1.9;;;;;;;31.45;37.7998;943.9469;;;;
2023/08/11 08:12:49;;;;;;;1.6;1.5;;;;;;;32.04;38.1123;943.9892;;;;
2023/08/11 08:15:19;;;;;;;2.6;1.6;;;;;;;33.03;36.29883;943.9716;;;;
2023/08/11 08:17:44;;;;;;;2.2;2;;;;;;;33.21;36.33789;943.9158;;;;
2023/08/11 08:20:16;;;;;;;1.8;1.6;;;;;;;32.85;36.7998;943.932;;;;
2023/08/11 08:25:07;;;;;;;2.3;1.7;;;;;;;34.32;34.2207;943.9504;;;;
2023/08/11 08:27:32;;;;;;;1.6;1.5;;;;;;;33.64;36.2627;943.8987;;;;
2023/08/11 08:29:58;;;;;;;1.8;1.7;;;;;;;34.58;34.37305;943.915;;;;
2023/08/11 08:32:23;;;;;;;3.2;1.5;;;;;;;34.35;34.63281;943.9078;;;;
2023/08/11 08:34:49;;;;;;;1.8;1.7;;;;;;;33.59;35.92188;943.7991;;;;
2023/08/11 08:37:14;;;;;;;4.2;1.8;;;;;;;34.67;34.27148;943.8301;;;;
2023/08/11 08:39:41;;;;;;;2.5;1.5;;;;;;;35.3;33.96875;943.801;;;;
2023/08/11 08:42:06;;;;;;;3;1.7;;;;;;;36.2;33.06836;943.7892;;;;
2023/08/11 08:44:31;;;;;;;2.7;1.7;;;;;;;36.25;32.05566;943.794;;;;
2023/08/11 08:46:58;;;;;;;1.7;1.5;;;;;;;36.24;31.61914;943.7512;;;;
2023/08/11 08:49:23;;;;;;;1.5;1.4;;;;;;;35.09;31.55176;943.7773;;;;
2023/08/11 08:51:50;;;;;;;1.7;1.4;;;;;;;35.15;32.81152;943.7648;;;;
2023/08/11 08:54:18;;;;;;;1.6;1.5;;;;;;;34.86;32.12695;943.7537;;;;
2023/08/11 08:56:45;;;;;;;1.8;1.7;;;;;;;33.72;33.44238;943.7286;;;;
2023/08/11 08:59:11;;;;;;;1.5;1.4;;;;;;;33.16;35.21582;943.6833;;;;
2023/08/11 09:01:38;;;;;;;1.4;1.3;;;;;;;33.73;33.53906;943.6833;;;;
2023/08/11 09:04:03;;;;;;;2.2;1.6;;;;;;;33.57;33.91309;943.6167;;;;
2023/08/11 09:06:29;;;;;;;1.8;1.6;;;;;;;33.16;34.56641;943.6021;;;;
2023/08/11 09:09:00;;;;;;;1.8;1.7;;;;;;;33.49;35.06152;943.6094;;;;
2023/08/11 09:11:25;;;;;;;2.3;1.8;;;;;;;31.83;40.83887;943.552;;;;
2023/08/11 09:16:42;;;;;;;2;1.8;;;;;;;31.96;38.41797;943.5298;;;;
2023/08/11 09:19:07;;;;;;;1.8;1.6;;;;;;;31.53;39.97363;943.476;;;;
2023/08/11 09:21:32;;;;;;;1.6;1.5;;;;;;;31.18;39.54883;943.5161;;;;
2023/08/11 09:23:59;;;;;;;2.3;1.7;;;;;;;30.01;42.7041;943.5153;;;;
2023/08/11 09:26:25;;;;;;;2.5;1.4;;;;;;;29.91;43.21973;943.4661;;;;
2023/08/11 09:28:56;;;;;;;2;1.6;;;;;;;29.49;41.37891;943.4674;;;;
2023/08/11 09:31:24;;;;;;;1.9;1.7;;;;;;;29.08;45.37793;943.4381;;;;
2023/08/11 09:33:48;;;;;;;1.8;1.4;;;;;;;28.81;43.80371;943.3714;;;;
2023/08/11 09:36:13;;;;;;;2;1.6;;;;;;;28.33;43.23535;943.4163;;;;
2023/08/11 09:38:41;;;;;;;1.7;1.6;;;;;;;29.08;43.83008;943.3755;;;;
2023/08/11 09:41:08;;;;;;;2.2;1.8;;;;;;;28.73;47.75781;943.3528;;;;
2023/08/11 09:43:31;;;;;;;2.4;1.7;;;;;;;29.14;45.53906;943.358;;;;
2023/08/11 09:45:59;;;;;;;1.7;1.6;;;;;;;29.27;45.1709;943.3527;;;;
2023/08/11 09:48:22;;;;;;;1.7;1.4;;;;;;;28.82;43.50781;943.3381;;;;
2023/08/11 09:50:49;;;;;;;1.9;1.7;;;;;;;28.22;45.33887;943.3194;;;;
2023/08/11 09:53:14;;;;;;;1.8;1.6;;;;;;;27.65;48.0127;943.2921;;;;
2023/08/11 09:55:39;;;;;;;2.1;1.6;;;;;;;28.05;48.56543;943.2942;;;;
2023/08/11 09:58:05;;;;;;;2.3;1.6;;;;;;;28.65;46.40527;943.2801;;;;
2023/08/11 10:00:30;;;;;;;1.7;1.6;;;;;;;28.02;46.28223;943.2258;;;;
2023/08/11 10:02:55;;;;;;;2.1;1.6;;;;;;;27.69;48.88281;943.2619;;;;
2023/08/11 10:05:24;;;;;;;2.1;1.7;;;;;;;28.2;48.94922;943.267;;;;
2023/08/11 10:07:49;;;;;;;2.1;1.9;;;;;;;28.48;49.86133;943.2802;;;;
2023/08/11 10:10:14;;;;;;;1.7;1.6;;;;;;;28.19;51.24219;943.2946;;;;
2023/08/11 10:12:41;;;;;;;1.7;1.6;;;;;;;28.39;50.59863;943.2416;;;;
2023/08/11 10:15:10;;;;;;;2.2;2;;;;;;;28.07;50.74219;943.2653;;;;
2023/08/11 10:17:35;;;;;;;3.5;1.8;;;;;;;28.26;52.01074;943.3065;;;;
2023/08/11 10:20:06;;;;;;;2.8;1.7;;;;;;;28.23;51.47266;943.3196;;;;
2023/08/11 10:22:29;;;;;;;2.1;1.9;;;;;;;28.62;48.23438;943.322;;;;
2023/08/11 10:24:54;;;;;;;2.6;2.1;;;;;;;28.91;49.20605;943.3521;;;;
2023/08/11 10:27:19;;;;;;;4.4;2.3;;;;;;;28.89;49.10938;943.3257;;;;
2023/08/11 10:29:44;;;;;;;2.2;1.9;;;;;;;29.05;48.67383;943.351;;;;
2023/08/11 10:32:10;;;;;;;1.9;1.7;;;;;;;28.83;50.26758;943.3861;;;;
2023/08/11 10:34:55;;;;;;;2.9;1.9;;;;;;;28.96;49.41406;943.4228;;;;
2023/08/11 10:37:21;;;;;;;1.9;1.7;;;;;;;28.85;49.48535;943.4178;;;;
2023/08/11 10:39:47;;;;;;;4.2;2.4;;;;;;;28.81;49.58691;943.3619;;;;
2023/08/11 10:42:21;;;;;;;2.8;2.1;;;;;;;28.8;49.1582;943.4211;;;;
2023/08/11 10:44:46;;;;;;;4.8;2.3;;;;;;;29.06;50.40039;943.4107;;;;
2023/08/11 10:47:11;;;;;;;2.5;2;;;;;;;29.89;45.83008;943.4475;;;;
2023/08/11 10:49:40;;;;;;;2.4;1.9;;;;;;;30.5;46.28613;943.4299;;;;
2023/08/11 10:52:05;;;;;;;4.6;2;;;;;;;30.95;46.48828;943.432;;;;
2023/08/11 10:54:36;;;;;;;2.7;2.1;;;;;;;30.42;46.63574;943.3006;;;;
2023/08/11 10:57:02;;;;;;;2.6;2.1;;;;;;;31.21;43.75;943.3572;;;;
2023/08/11 10:59:28;;;;;;;2.2;1.9;;;;;;;31.26;45.83691;943.3029;;;;
2023/08/11 11:01:53;;;;;;;2.9;1.9;;;;;;;30.62;44.08691;943.2952;;;;
2023/08/11 11:04:20;;;;;;;2.4;2.2;;;;;;;30.42;47.20898;943.3466;;;;
2023/08/11 11:06:45;;;;;;;2.4;1.9;;;;;;;30.67;46.25586;943.3304;;;;
2023/08/11 11:09:13;;;;;;;2.1;1.9;;;;;;;31.49;43.28711;943.3293;;;;
2023/08/11 11:11:38;;;;;;;3;2.1;;;;;;;32.26;40.58984;943.338;;;;
2023/08/11 11:14:04;;;;;;;2.1;1.9;;;;;;;33.26;39.09277;943.3395;;;;
2023/08/11 11:16:30;;;;;;;2.3;2;;;;;;;34.51;37.41699;943.3177;;;;
2023/08/11 11:18:58;;;;;;;2.5;1.9;;;;;;;33.47;38.94238;943.2703;;;;
2023/08/11 11:21:23;;;;;;;3.2;1.9;;;;;;;32.66;39.16113;943.1531;;;;
2023/08/11 11:23:51;;;;;;;3;2;;;;;;;32.48;43.0332;943.1724;;;;
2023/08/11 11:26:17;;;;;;;1.8;1.7;;;;;;;32.26;41.53711;943.1227;;;;
2023/08/11 11:28:43;;;;;;;3.7;2.1;;;;;;;34.07;37.79004;943.1036;;;;
2023/08/11 11:31:08;;;;;;;2.3;1.8;;;;;;;35.28;34.84863;943.0991;;;;
2023/08/11 11:33:35;;;;;;;2.5;1.9;;;;;;;34.78;38.45215;943.2025;;;;
2023/08/11 11:36:04;;;;;;;3.3;1.8;;;;;;;35.4;36.55957;943.1955;;;;
2023/08/11 11:38:31;;;;;;;2.1;1.9;;;;;;;36.48;33.00293;943.1973;;;;
2023/08/11 11:40:56;;;;;;;2.4;2;;;;;;;35.6;35.53711;943.1428;;;;
2023/08/11 11:43:22;;;;;;;2.2;1.9;;;;;;;35.8;36.19336;943.1408;;;;
2023/08/11 11:45:50;;;;;;;2.5;1.8;;;;;;;35.64;34.81641;943.1686;;;;
2023/08/11 11:48:12;;;;;;;2.4;2.2;;;;;;;35.79;34.56152;943.1091;;;;
2023/08/11 11:50:38;;;;;;;2.2;2;;;;;;;36.22;35.11328;943.1635;;;;
2023/08/11 11:53:03;;;;;;;2;1.8;;;;;;;36.56;33.55371;943.1528;;;;
2023/08/11 11:55:30;;;;;;;2.3;1.9;;;;;;;36.65;34.57813;943.1127;;;;
2023/08/11 11:57:57;;;;;;;2.2;1.8;;;;;;;35.74;35.00391;943.0331;;;;
2023/08/11 12:00:21;;;;;;;3.5;2;;;;;;;36.96;32.50488;943.0932;;;;
2023/08/11 12:02:47;;;;;;;1.8;1.7;;;;;;;35.8;34.09082;943.0971;;;;
2023/08/11 12:05:16;;;;;;;2.1;1.6;;;;;;;34.66;37.00684;943.0634;;;;
2023/08/11 12:07:41;;;;;;;2.3;1.9;;;;;;;34.4;38.31152;943.068;;;;
2023/08/11 12:10:15;;;;;;;1.9;1.8;;;;;;;34.18;38.78613;943.0591;;;;
2023/08/11 12:12:39;;;;;;;2.3;2.1;;;;;;;33.39;39.69336;943.0139;;;;
2023/08/11 12:15:07;;;;;;;3.3;2.1;;;;;;;32.24;41.72656;942.9783;;;;
2023/08/11 12:17:32;;;;;;;3.7;2;;;;;;;32.15;42.97852;942.978;;;;
2023/08/11 12:20:01;;;;;;;2.7;2.1;;;;;;;31.41;44.66602;942.9913;;;;
2023/08/11 12:22:26;;;;;;;3;2;;;;;;;31.18;46.00781;942.999;;;;
2023/08/11 12:24:54;;;;;;;1.8;1.7;;;;;;;31.62;43.21582;942.9503;;;;
2023/08/11 12:27:19;;;;;;;2.3;1.9;;;;;;;31.51;43.95898;942.9224;;;;
2023/08/11 12:29:46;;;;;;;2.1;1.9;;;;;;;31.47;43.45215;942.8631;;;;
2023/08/11 12:32:10;;;;;;;2.1;1.9;;;;;;;31.15;45.06055;942.8983;;;;
2023/08/11 12:34:37;;;;;;;2.1;1.9;;;;;;;31.05;45.46875;942.8428;;;;
2023/08/11 12:37:02;;;;;;;2;1.8;;;;;;;31.15;45.80176;942.8614;;;;
2023/08/11 12:39:31;;;;;;;2.7;2.1;;;;;;;31.13;45.40527;942.8535;;;;
2023/08/11 12:44:25;;;;;;;3.1;2.1;;;;;;;30.69;47.35645;942.8;;;;
2023/08/11 12:46:50;;;;;;;3.1;1.9;;;;;;;30.91;46.32813;942.8909;;;;
2023/08/11 12:49:15;;;;;;;2.4;1.9;;;;;;;30.73;45.11426;942.8896;;;;
2023/08/11 12:51:41;;;;;;;3.1;1.9;;;;;;;30.69;45.25293;942.9152;;;;
2023/08/11 12:54:07;;;;;;;2.3;1.9;;;;;;;30.56;44.89355;942.8987;;;;
2023/08/11 12:56:32;;;;;;;1.9;1.8;;;;;;;30.74;45.12695;942.8123;;;;
2023/08/11 13:01:54;;;;;;;2.1;1.9;;;;;;;29.86;49.64453;942.8826;;;;
2023/08/11 13:04:19;;;;;;;2.1;1.9;;;;;;;30.21;46.99707;942.8369;;;;
2023/08/11 13:06:46;;;;;;;2;1.7;;;;;;;30.21;48.41602;942.8233;;;;
2023/08/11 13:09:14;;;;;;;2.5;2;;;;;;;29.92;48.7793;942.788;;;;
2023/08/11 13:11:36;;;;;;;2;1.8;;;;;;;30.33;46.8291;942.7963;;;;
2023/08/11 13:14:03;;;;;;;2.1;1.9;;;;;;;30.33;49.32422;942.8433;;;;
2023/08/11 13:16:27;;;;;;;1.8;1.7;;;;;;;30.3;46.08594;942.8253;;;;
2023/08/11 13:18:53;;;;;;;2.4;2.2;;;;;;;30.14;47.60938;942.8397;;;;
2023/08/11 13:21:18;;;;;;;2;1.9;;;;;;;30.48;46.21191;942.8336;;;;
2023/08/11 13:23:45;;;;;;;2.1;1.9;;;;;;;29.86;48.43848;942.8468;;;;
2023/08/11 13:26:12;;;;;;;3.3;2.1;;;;;;;30.22;46.55566;942.8356;;;;
2023/08/11 13:28:37;;;;;;;2.4;2.2;;;;;;;29.97;48.2832;942.8024;;;;
2023/08/11 13:31:02;;;;;;;2.1;1.9;;;;;;;30.27;47.81445;942.7661;;;;
2023/08/11 13:33:29;;;;;;;1.9;1.8;;;;;;;30.23;46.16211;942.6854;;;;
2023/08/11 13:35:54;;;;;;;2.4;1.7;;;;;;;30.04;48.64844;942.6838;;;;
2023/08/11 13:38:22;;;;;;;2.3;2;;;;;;;29.97;47.1377;942.7538;;;;
2023/08/11 13:40:48;;;;;;;2.7;1.9;;;;;;;29.97;50.38281;942.7758;;;;
2023/08/11 13:43:11;;;;;;;5;2.3;;;;;;;29.82;49.44727;942.722;;;;
2023/08/11 13:45:37;;;;;;;3.4;2;;;;;;;29.91;47.95508;942.7263;;;;
2023/08/11 13:48:02;;;;;;;3.8;2.3;;;;;;;29.94;48.2207;942.753;;;;
2023/08/11 13:50:28;;;;;;;3.5;1.9;;;;;;;29.76;47.34375;942.8025;;;;
2023/08/11 13:52:53;;;;;;;2.2;1.8;;;;;;;29.66;47.64258;942.7175;;;;
2023/08/11 13:55:20;;;;;;;2.1;1.9;;;;;;;29.74;47.49609;942.7662;;;;
2023/08/11 13:57:48;;;;;;;2.8;1.9;;;;;;;30.03;46.75;942.7422;;;;
2023/08/11 14:00:16;;;;;;;4;2.1;;;;;;;29.98;48.87012;942.7349;;;;
2023/08/11 14:02:41;;;;;;;2;1.9;;;;;;;29.65;47.82129;942.7178;;;;
2023/08/11 14:05:12;;;;;;;2.3;2.1;;;;;;;29.48;48.67285;942.6591;;;;
2023/08/11 14:07:40;;;;;;;2.5;2;;;;;;;29.61;47.9834;942.6558;;;;
2023/08/11 14:10:06;;;;;;;2.1;1.9;;;;;;;29.86;48.25977;942.6579;;;;
2023/08/11 14:12:31;;;;;;;3.1;2;;;;;;;29.7;47.27734;942.6478;;;;
2023/08/11 14:14:56;;;;;;;2.1;1.9;;;;;;;29.11;51.33496;942.6671;;;;
2023/08/11 14:17:24;;;;;;;1.9;1.8;;;;;;;29.18;50.39063;942.7126;;;;
2023/08/11 14:19:50;;;;;;;1.9;1.7;;;;;;;29.44;49.5127;942.6024;;;;
2023/08/11 14:22:16;;;;;;;2.3;1.9;;;;;;;29.43;49.13184;942.6493;;;;
2023/08/11 14:24:41;;;;;;;2;1.8;;;;;;;29.36;48.79004;942.6149;;;;
2023/08/11 14:27:07;;;;;;;2.6;1.9;;;;;;;29.03;51.49316;942.6008;;;;
2023/08/11 14:29:32;;;;;;;2.1;1.9;;;;;;;29.2;49.95215;942.6623;;;;
2023/08/11 14:31:58;;;;;;;2.3;2;;;;;;;29.3;50.08203;942.6355;;;;
2023/08/11 14:34:23;;;;;;;3.2;2;;;;;;;29.2;49.37988;942.618;;;;
2023/08/11 14:36:49;;;;;;;1.9;1.7;;;;;;;29.1;48.46387;942.6161;;;;
2023/08/11 14:39:17;;;;;;;2.6;1.9;;;;;;;29.11;49.54785;942.6002;;;;
2023/08/11 14:41:47;;;;;;;2.2;1.9;;;;;;;29.22;50.31152;942.6037;;;;
2023/08/11 14:47:36;;;;;;;2.2;2;;;;;;;29.16;47.86328;942.5313;;;;
2023/08/11 14:50:01;;;;;;;2.6;1.8;;;;;;;29.12;48.87109;942.5536;;;;
2023/08/11 14:52:30;;;;;;;1.9;1.8;;;;;;;29.3;48.00879;942.5609;;;;
2023/08/11 14:54:57;;;;;;;1.9;1.7;;;;;;;29.21;49.42871;942.5695;;;;
2023/08/11 14:57:23;;;;;;;2.1;1.7;;;;;;;29.09;48.46289;942.5081;;;;
2023/08/11 14:59:48;;;;;;;1.8;1.7;;;;;;;29.21;49.87012;942.5128;;;;
2023/08/11 15:02:13;;;;;;;1.9;1.7;;;;;;;29.17;49.49512;942.5162;;;;
2023/08/11 15:04:39;;;;;;;2;1.8;;;;;;;29;48.2041;942.5015;;;;
2023/08/11 15:07:04;;;;;;;2;1.8;;;;;;;28.67;51.01074;942.5518;;;;
2023/08/11 15:09:29;;;;;;;2.1;1.9;;;;;;;28.56;50.36914;942.5452;;;;
2023/08/11 15:11:55;;;;;;;3.2;1.7;;;;;;;28.57;50.0127;942.5695;;;;
2023/08/11 15:14:20;;;;;;;2.1;1.6;;;;;;;28.57;48.26465;942.5815;;;;
2023/08/11 15:16:46;;;;;;;2.4;1.8;;;;;;;28.38;50.19336;942.5408;;;;
2023/08/11 15:19:11;;;;;;;2.9;1.9;;;;;;;28.25;49.26465;942.5711;;;;